createdAt,value
2023-12-10T00:02:28.686Z,62.60
2023-12-10T00:04:56.927Z,68.30
2023-12-10T00:07:24.975Z,75.60
2023-12-10T00:09:53.297Z,81.30
2023-12-10T00:12:21.432Z,67.30
2023-12-10T00:14:55.051Z,70.23
2023-12-10T00:17:24.236Z,72.00
2023-12-10T00:19:53.848Z,77.03
2023-12-10T00:22:22.145Z,71.20
2023-12-10T00:24:50.369Z,76.03
2023-12-10T00:27:18.697Z,58.13
2023-12-10T00:29:46.807Z,72.40
2023-12-10T00:32:15.040Z,69.03
2023-12-10T00:34:43.213Z,79.90
2023-12-10T00:37:12.751Z,63.70
2023-12-10T00:39:41.008Z,60.80
2023-12-10T00:42:09.420Z,69.17
2023-12-10T00:44:37.978Z,62.03
2023-12-10T00:47:06.482Z,73.00
2023-12-10T00:49:34.629Z,68.90
2023-12-10T00:52:03.893Z,73.97
2023-12-10T00:54:34.406Z,66.20
2023-12-10T00:57:02.740Z,64.57
2023-12-10T00:59:30.793Z,62.00
2023-12-10T01:02:00.240Z,70.00
2023-12-10T01:04:28.759Z,66.90
2023-12-10T01:06:57.000Z,72.00
2023-12-10T01:09:25.143Z,63.47
2023-12-10T01:11:54.815Z,61.53
2023-12-10T01:14:22.893Z,59.70
2023-12-10T01:16:50.971Z,59.63
2023-12-10T01:19:19.145Z,61.40
2023-12-10T01:21:48.242Z,55.57
2023-12-10T01:24:18.181Z,67.87
2023-12-10T01:26:46.333Z,59.33
2023-12-10T01:29:16.649Z,65.73
2023-12-10T01:31:44.784Z,66.23
2023-12-10T01:34:13.054Z,60.10
2023-12-10T01:36:41.300Z,54.50
2023-12-10T01:39:09.474Z,60.73
2023-12-10T01:41:37.547Z,57.80
2023-12-10T01:44:06.314Z,60.50
2023-12-10T01:46:35.754Z,54.00
2023-12-10T01:49:05.570Z,56.10
2023-12-10T01:51:33.948Z,47.47
2023-12-10T01:54:02.083Z,57.97
2023-12-10T01:56:31.492Z,52.43
2023-12-10T01:59:00.049Z,59.33
2023-12-10T02:01:29.008Z,63.43
2023-12-10T02:03:58.780Z,55.00
2023-12-10T02:06:27.071Z,49.87
2023-12-10T02:08:55.200Z,56.07
2023-12-10T02:11:23.730Z,53.97
2023-12-10T02:13:51.790Z,50.17
2023-12-10T02:16:19.995Z,50.40
2023-12-10T02:18:48.301Z,50.30
2023-12-10T02:21:18.434Z,49.53
2023-12-10T02:24:01.829Z,51.17
2023-12-10T02:26:32.090Z,48.60
2023-12-10T02:29:00.771Z,45.57
2023-12-10T02:31:28.933Z,47.33
2023-12-10T02:33:57.114Z,47.57
2023-12-10T02:36:25.260Z,52.03
2023-12-10T02:38:53.625Z,49.40
2023-12-10T02:41:21.743Z,49.60
2023-12-10T02:43:51.235Z,53.87
2023-12-10T02:46:19.385Z,49.93
2023-12-10T02:48:47.667Z,50.17
2023-12-10T02:51:16.007Z,45.23
2023-12-10T02:53:44.134Z,50.97
2023-12-10T02:56:12.202Z,50.60
2023-12-10T02:58:40.281Z,49.63
2023-12-10T03:01:10.211Z,51.43
2023-12-10T03:03:38.597Z,49.87
2023-12-10T03:06:08.543Z,52.23
2023-12-10T03:08:36.708Z,47.87
2023-12-10T03:11:04.872Z,46.13
2023-12-10T03:13:33.094Z,51.30
2023-12-10T03:16:01.236Z,53.63
2023-12-10T03:18:31.998Z,53.03
2023-12-10T03:21:00.281Z,48.37
2023-12-10T03:23:28.539Z,56.60
2023-12-10T03:25:56.600Z,53.67
2023-12-10T03:28:24.719Z,50.50
2023-12-10T03:30:53.092Z,43.27
2023-12-10T03:33:21.484Z,47.00
2023-12-10T03:35:51.159Z,47.97
2023-12-10T03:38:19.321Z,39.27
2023-12-10T03:40:47.367Z,49.23
2023-12-10T03:43:15.416Z,49.37
2023-12-10T03:45:43.753Z,47.97
2023-12-10T03:48:12.118Z,52.47
2023-12-10T03:50:40.248Z,39.90
2023-12-10T03:53:09.740Z,43.30
2023-12-10T03:55:37.804Z,43.93
2023-12-10T03:58:05.875Z,47.67
2023-12-10T04:00:34.492Z,49.53
2023-12-10T04:03:02.712Z,42.70
2023-12-10T04:05:31.017Z,42.33
2023-12-10T04:07:59.247Z,37.37
2023-12-10T04:10:28.659Z,39.30
2023-12-10T04:12:56.882Z,42.90
2023-12-10T04:15:25.081Z,45.87
2023-12-10T04:17:53.258Z,39.07
2023-12-10T04:20:21.502Z,35.27
2023-12-10T04:22:49.648Z,44.83
2023-12-10T04:25:18.275Z,39.93
2023-12-10T04:27:47.740Z,41.77
2023-12-10T04:30:16.553Z,39.20
2023-12-10T04:32:44.697Z,44.57
2023-12-10T04:35:12.794Z,40.73
2023-12-10T04:37:40.954Z,44.27
2023-12-10T04:40:12.005Z,36.73
2023-12-10T04:42:40.739Z,34.13
2023-12-10T04:45:11.350Z,39.17
2023-12-10T04:47:39.742Z,39.00
2023-12-10T04:50:09.323Z,35.77
2023-12-10T04:52:37.419Z,36.33
2023-12-10T04:55:06.394Z,38.33
2023-12-10T04:57:34.600Z,41.43
2023-12-10T05:00:05.060Z,41.07
2023-12-10T05:02:34.626Z,38.67
2023-12-10T05:05:02.685Z,37.43
2023-12-10T05:07:30.791Z,38.60
2023-12-10T05:09:59.153Z,39.10
2023-12-10T05:12:27.526Z,38.40
2023-12-10T05:14:55.961Z,42.13
2023-12-10T05:17:24.143Z,43.13
2023-12-10T05:19:53.645Z,37.33
2023-12-10T05:22:24.286Z,43.13
2023-12-10T05:24:53.839Z,37.50
2023-12-10T05:27:21.947Z,45.87
2023-12-10T05:29:50.303Z,40.97
2023-12-10T05:32:18.343Z,36.57
2023-12-10T05:34:46.535Z,39.43
2023-12-10T05:37:16.033Z,38.10
2023-12-10T05:39:44.150Z,41.03
2023-12-10T05:42:12.309Z,40.87
2023-12-10T05:44:40.374Z,41.67
2023-12-10T05:47:08.454Z,49.63
2023-12-10T05:49:36.702Z,44.77
2023-12-10T05:52:05.387Z,45.80
2023-12-10T05:54:34.893Z,46.63
2023-12-10T05:57:03.055Z,49.63
2023-12-10T05:59:31.162Z,50.47
2023-12-10T06:01:59.245Z,44.70
2023-12-10T06:04:27.693Z,49.33
2023-12-10T06:06:56.591Z,50.87
2023-12-10T06:09:25.394Z,45.10
2023-12-10T06:11:54.869Z,49.53
2023-12-10T06:14:23.046Z,45.83
2023-12-10T06:16:51.153Z,48.30
2023-12-10T06:19:19.351Z,43.53
2023-12-10T06:21:47.510Z,48.60
2023-12-10T06:24:15.669Z,38.77
2023-12-10T06:26:43.880Z,48.40
2023-12-10T06:29:13.437Z,47.40
2023-12-10T06:31:41.555Z,45.90
2023-12-10T06:34:10.023Z,47.30
2023-12-10T06:36:38.579Z,46.07
2023-12-10T06:39:07.866Z,51.03
2023-12-10T06:41:36.249Z,42.60
2023-12-10T06:44:04.478Z,39.70
2023-12-10T06:46:33.870Z,54.60
2023-12-10T06:49:02.125Z,33.90
2023-12-10T06:51:30.230Z,34.40
2023-12-10T06:53:58.343Z,45.67
2023-12-10T06:56:26.428Z,35.33
2023-12-10T06:58:54.515Z,48.53
2023-12-10T07:01:22.711Z,47.47
2023-12-10T07:03:52.200Z,48.00
2023-12-10T07:06:20.353Z,47.13
2023-12-10T07:08:48.480Z,43.93
2023-12-10T07:11:16.588Z,50.17
2023-12-10T07:13:44.673Z,47.40
2023-12-10T07:16:12.768Z,46.73
2023-12-10T07:18:41.394Z,46.33
2023-12-10T07:21:10.898Z,48.37
2023-12-10T07:23:39.167Z,45.30
2023-12-10T07:26:07.574Z,40.23
2023-12-10T07:28:35.657Z,34.30
2023-12-10T07:31:03.901Z,43.80
2023-12-10T07:33:32.342Z,39.27
2023-12-10T07:36:00.558Z,37.63
2023-12-10T07:38:29.951Z,34.63
2023-12-10T07:40:58.075Z,38.27
2023-12-10T07:43:26.154Z,34.40
2023-12-10T07:45:54.299Z,33.53
2023-12-10T07:48:23.022Z,35.97
2023-12-10T07:50:51.592Z,34.93
2023-12-10T07:53:20.115Z,33.97
2023-12-10T07:55:49.576Z,34.07
2023-12-10T07:58:17.640Z,31.93
2023-12-10T08:00:48.394Z,31.30
2023-12-10T08:03:17.013Z,34.87
2023-12-10T08:05:45.164Z,32.80
2023-12-10T08:08:13.286Z,31.83
2023-12-10T08:10:41.797Z,29.63
2023-12-10T08:13:11.289Z,23.17
2023-12-10T08:15:39.406Z,29.43
2023-12-10T08:18:07.960Z,24.27
2023-12-10T08:20:36.774Z,29.77
2023-12-10T08:23:04.842Z,25.97
2023-12-10T08:25:32.925Z,25.87
2023-12-10T08:28:01.155Z,26.30
2023-12-10T08:30:30.740Z,24.60
2023-12-10T08:32:58.911Z,21.47
2023-12-10T08:35:27.202Z,21.77
2023-12-10T08:37:55.253Z,18.23
2023-12-10T08:40:23.332Z,21.30
2023-12-10T08:42:51.471Z,20.80
2023-12-10T08:45:20.332Z,22.87
2023-12-10T08:47:49.832Z,23.10
2023-12-10T08:50:18.162Z,22.43
2023-12-10T08:52:46.234Z,24.67
2023-12-10T08:55:14.481Z,15.93
2023-12-10T08:57:42.631Z,23.20
2023-12-10T09:00:12.082Z,26.93
2023-12-10T09:02:40.121Z,24.93
2023-12-10T09:05:10.505Z,21.17
2023-12-10T09:07:38.696Z,22.23
2023-12-10T09:10:12.106Z,24.27
2023-12-10T09:12:41.468Z,22.10
2023-12-10T09:15:10.926Z,22.00
2023-12-10T09:17:39.250Z,20.20
2023-12-10T09:20:11.092Z,22.87
2023-12-10T09:22:39.352Z,22.80
2023-12-10T09:25:07.747Z,22.47
2023-12-10T09:27:35.917Z,23.10
2023-12-10T09:30:04.538Z,21.03
2023-12-10T09:32:33.044Z,20.10
2023-12-10T09:35:02.668Z,25.97
2023-12-10T09:37:32.233Z,24.03
2023-12-10T09:40:00.793Z,25.40
2023-12-10T09:42:29.188Z,23.23
2023-12-10T09:44:57.587Z,21.30
2023-12-10T09:47:27.214Z,22.40
2023-12-10T09:49:56.608Z,18.90
2023-12-10T09:52:25.198Z,20.03
2023-12-10T09:54:55.275Z,21.73
2023-12-10T09:57:23.377Z,20.83
2023-12-10T09:59:51.624Z,21.90
2023-12-10T10:02:19.956Z,24.90
2023-12-10T10:04:48.753Z,20.03
2023-12-10T10:07:16.931Z,19.27
2023-12-10T10:09:45.857Z,20.77
2023-12-10T10:12:16.135Z,20.07
2023-12-10T10:14:56.384Z,19.23
2023-12-10T10:17:28.735Z,22.23
2023-12-10T10:19:57.648Z,15.97
2023-12-10T10:22:26.121Z,17.67
2023-12-10T10:24:54.691Z,18.20
2023-12-10T10:27:24.575Z,17.87
2023-12-10T10:29:55.094Z,16.90
2023-12-10T10:32:24.946Z,17.73
2023-12-10T10:34:53.572Z,24.27
2023-12-10T10:37:21.702Z,23.10
2023-12-10T10:39:51.231Z,20.53
2023-12-10T10:42:20.110Z,24.87
2023-12-10T10:44:49.671Z,20.43
2023-12-10T10:47:19.995Z,22.03
2023-12-10T10:50:19.316Z,21.23
2023-12-10T10:52:42.190Z,19.07
2023-12-10T10:55:11.922Z,22.70
2023-12-10T10:57:40.482Z,22.90
2023-12-10T11:00:43.719Z,19.80
2023-12-10T11:03:11.906Z,17.50
2023-12-10T11:05:41.233Z,19.53
2023-12-10T11:08:10.121Z,18.13
2023-12-10T11:10:44.192Z,16.23
2023-12-10T11:13:12.703Z,18.77
2023-12-10T11:15:41.319Z,19.53
2023-12-10T11:18:12.906Z,19.37
2023-12-10T11:20:42.997Z,20.67
2023-12-10T11:23:12.989Z,20.40
2023-12-10T11:25:42.502Z,18.20
2023-12-10T11:28:12.973Z,14.13
2023-12-10T11:30:42.385Z,19.17
2023-12-10T11:33:13.309Z,20.20
2023-12-10T11:35:41.663Z,18.77
2023-12-10T11:38:10.558Z,19.70
2023-12-10T11:40:39.091Z,21.40
2023-12-10T11:43:09.026Z,19.20
2023-12-10T11:45:39.389Z,20.53
2023-12-10T11:48:16.697Z,19.97
2023-12-10T11:50:49.756Z,19.93
2023-12-10T11:53:18.620Z,21.33
2023-12-10T11:55:46.721Z,17.87
2023-12-10T11:58:14.879Z,20.40
2023-12-10T12:00:58.605Z,21.63
2023-12-10T12:03:26.892Z,20.77
2023-12-10T12:05:56.672Z,20.53
2023-12-10T12:08:27.999Z,20.30
2023-12-10T12:10:58.159Z,26.03
2023-12-10T12:13:26.937Z,22.50
2023-12-10T12:15:55.124Z,23.13
2023-12-10T12:18:26.402Z,21.73
2023-12-10T12:20:56.179Z,21.27
2023-12-10T12:23:24.296Z,24.57
2023-12-10T12:25:52.755Z,27.67
2023-12-10T12:28:21.477Z,23.23
2023-12-10T12:30:49.714Z,24.30
2023-12-10T12:33:18.251Z,22.53
2023-12-10T12:35:46.467Z,21.50
2023-12-10T12:38:15.920Z,22.70
2023-12-10T12:40:43.975Z,21.90
2023-12-10T12:43:12.142Z,22.07
2023-12-10T12:45:40.249Z,24.07
2023-12-10T12:48:08.416Z,26.73
2023-12-10T12:50:36.523Z,22.90
2023-12-10T12:53:04.581Z,24.50
2023-12-10T12:55:34.022Z,23.40
2023-12-10T12:58:02.766Z,21.47
2023-12-10T13:00:30.896Z,21.13
2023-12-10T13:03:00.468Z,23.83
2023-12-10T13:05:28.601Z,23.03
2023-12-10T13:07:56.873Z,25.40
2023-12-10T13:10:24.971Z,21.00
2023-12-10T13:12:54.484Z,23.20
2023-12-10T13:15:22.669Z,22.10
2023-12-10T13:17:50.923Z,23.77
2023-12-10T13:20:19.519Z,24.97
2023-12-10T13:22:47.621Z,19.77
2023-12-10T13:25:15.973Z,21.53
2023-12-10T13:27:44.245Z,24.10
2023-12-10T13:30:15.118Z,25.40
2023-12-10T13:32:43.471Z,24.63
2023-12-10T13:35:11.731Z,23.57
2023-12-10T13:37:39.848Z,21.60
2023-12-10T13:40:11.220Z,25.77
2023-12-10T13:42:39.461Z,22.10
2023-12-10T13:45:08.077Z,24.23
2023-12-10T13:47:37.739Z,18.63
2023-12-10T13:50:07.183Z,19.70
2023-12-10T13:52:35.275Z,22.10
2023-12-10T13:55:03.527Z,23.63
2023-12-10T13:57:34.355Z,21.50
2023-12-10T14:00:02.673Z,25.00
2023-12-10T14:02:33.021Z,22.60
2023-12-10T14:05:02.711Z,21.20
2023-12-10T14:07:32.038Z,22.80
2023-12-10T14:10:00.469Z,20.80
2023-12-10T14:12:28.809Z,20.87
2023-12-10T14:14:56.905Z,17.83
2023-12-10T14:17:24.972Z,19.93
2023-12-10T14:19:53.295Z,17.13
2023-12-10T14:22:22.736Z,21.63
2023-12-10T14:24:50.980Z,17.60
2023-12-10T14:27:19.091Z,17.13
2023-12-10T14:29:47.165Z,18.77
2023-12-10T14:32:15.930Z,17.73
2023-12-10T14:34:44.512Z,20.30
2023-12-10T14:37:12.828Z,15.97
2023-12-10T14:39:43.282Z,19.00
2023-12-10T14:42:11.471Z,16.40
2023-12-10T14:44:39.614Z,13.37
2023-12-10T14:47:07.712Z,17.13
2023-12-10T14:49:36.090Z,14.17
2023-12-10T14:52:04.412Z,13.93
2023-12-10T14:54:32.558Z,12.93
2023-12-10T14:57:02.005Z,13.80
2023-12-10T14:59:30.137Z,10.87
2023-12-10T15:02:06.061Z,12.10
2023-12-10T15:04:39.938Z,12.73
2023-12-10T15:07:10.143Z,13.93
2023-12-10T15:09:39.778Z,13.30
2023-12-10T15:12:09.526Z,13.60
2023-12-10T15:14:37.666Z,13.57
2023-12-10T15:17:07.582Z,13.97
2023-12-10T15:19:43.223Z,13.57
2023-12-10T15:22:13.557Z,12.67
2023-12-10T15:24:41.685Z,11.53
2023-12-10T15:27:11.114Z,10.50
2023-12-10T15:29:39.164Z,16.93
2023-12-10T15:32:07.321Z,10.07
2023-12-10T15:34:35.522Z,10.63
2023-12-10T15:37:05.092Z,13.47
2023-12-10T15:39:33.322Z,11.13
2023-12-10T15:42:01.503Z,13.13
2023-12-10T15:44:30.945Z,11.30
2023-12-10T15:46:59.000Z,11.93
2023-12-10T15:49:27.199Z,9.00
2023-12-10T15:51:54.346Z,10.00
2023-12-10T15:54:22.512Z,11.07
2023-12-10T15:56:50.550Z,10.87
2023-12-10T15:59:18.701Z,11.40
2023-12-10T16:01:48.205Z,10.87
2023-12-10T16:04:16.528Z,9.73
2023-12-10T16:06:44.931Z,11.03
2023-12-10T16:09:13.118Z,11.00
2023-12-10T16:11:41.164Z,11.07
2023-12-10T16:14:09.235Z,14.20
2023-12-10T16:16:37.317Z,13.13
2023-12-10T16:19:06.918Z,12.47
2023-12-10T16:21:35.300Z,12.10
2023-12-10T16:24:05.950Z,11.90
2023-12-10T16:26:37.644Z,12.23
2023-12-10T16:29:06.214Z,11.37
2023-12-10T16:31:34.882Z,11.90
2023-12-10T16:34:03.937Z,13.97
2023-12-10T16:36:33.468Z,13.33
2023-12-10T16:39:01.553Z,12.47
2023-12-10T16:41:29.638Z,11.17
2023-12-10T16:43:59.949Z,12.77
2023-12-10T16:46:28.160Z,12.97
2023-12-10T16:48:56.270Z,11.13
2023-12-10T16:51:24.565Z,12.70
2023-12-10T16:53:53.968Z,15.10
2023-12-10T16:56:22.035Z,12.97
2023-12-10T16:58:50.160Z,10.50
2023-12-10T17:01:18.607Z,12.23
2023-12-10T17:03:46.748Z,9.73
2023-12-10T17:06:14.947Z,13.07
2023-12-10T17:08:45.036Z,9.97
2023-12-10T17:11:15.330Z,10.77
2023-12-10T17:13:43.476Z,9.10
2023-12-10T17:16:11.588Z,8.47
2023-12-10T17:18:39.793Z,11.23
2023-12-10T17:21:08.227Z,11.27
2023-12-10T17:23:36.306Z,10.27
2023-12-10T17:26:04.744Z,10.23
2023-12-10T17:28:35.329Z,11.23
2023-12-10T17:31:03.482Z,10.57
2023-12-10T17:33:31.740Z,11.20
2023-12-10T17:36:00.058Z,14.47
2023-12-10T17:38:29.285Z,13.07
2023-12-10T17:40:57.415Z,11.93
2023-12-10T17:43:26.133Z,13.03
2023-12-10T17:45:55.572Z,12.77
2023-12-10T17:48:23.823Z,14.90
2023-12-10T17:50:52.635Z,15.10
2023-12-10T17:53:20.809Z,16.47
2023-12-10T17:55:48.960Z,17.80
2023-12-10T17:58:17.040Z,13.27
2023-12-10T18:00:46.456Z,12.63
2023-12-10T18:03:16.081Z,14.50
2023-12-10T18:05:47.959Z,13.10
2023-12-10T18:08:17.390Z,13.00
2023-12-10T18:10:45.892Z,13.37
2023-12-10T18:13:14.085Z,14.50
2023-12-10T18:15:42.229Z,13.87
2023-12-10T18:18:10.473Z,13.67
2023-12-10T18:20:39.866Z,15.20
2023-12-10T18:23:08.056Z,12.70
2023-12-10T18:25:36.214Z,13.53
2023-12-10T18:28:04.399Z,13.77
2023-12-10T18:30:32.691Z,15.33
2023-12-10T18:33:00.970Z,12.93
2023-12-10T18:35:29.055Z,14.83
2023-12-10T18:37:58.507Z,14.10
2023-12-10T18:40:28.829Z,13.10
2023-12-10T18:43:01.114Z,13.83
2023-12-10T18:45:29.494Z,14.33
2023-12-10T18:47:57.658Z,15.37
2023-12-10T18:50:25.858Z,12.77
2023-12-10T18:52:54.989Z,14.33
2023-12-10T18:55:24.873Z,13.63
2023-12-10T18:57:53.011Z,15.33
2023-12-10T19:00:21.646Z,12.67
2023-12-10T19:02:50.113Z,14.57
2023-12-10T19:05:19.337Z,15.00
2023-12-10T19:07:47.763Z,12.20
2023-12-10T19:10:16.420Z,14.77
2023-12-10T19:12:46.153Z,13.93
2023-12-10T19:15:14.323Z,14.57
2023-12-10T19:17:42.678Z,12.93
2023-12-10T19:20:22.554Z,14.77
2023-12-10T19:22:51.112Z,10.90
2023-12-10T19:25:19.906Z,13.60
2023-12-10T19:27:49.481Z,11.83
2023-12-10T19:30:17.767Z,14.57
2023-12-10T19:32:47.147Z,12.97
2023-12-10T19:35:15.339Z,11.40
2023-12-10T19:37:43.418Z,11.73
2023-12-10T19:40:12.232Z,12.27
2023-12-10T19:42:40.501Z,12.57
2023-12-10T19:45:11.147Z,10.70
2023-12-10T19:47:39.364Z,12.17
2023-12-10T19:50:08.675Z,10.20
2023-12-10T19:52:36.894Z,10.80
2023-12-10T19:55:05.682Z,11.53
2023-12-10T19:57:33.952Z,9.10
2023-12-10T20:00:02.891Z,10.90
2023-12-10T20:02:40.943Z,10.70
2023-12-10T20:05:10.301Z,11.17
2023-12-10T20:07:38.760Z,9.20
2023-12-10T20:10:07.852Z,11.53
2023-12-10T20:12:36.148Z,10.60
2023-12-10T20:15:05.600Z,10.07
2023-12-10T20:17:34.306Z,8.47
2023-12-10T20:20:04.687Z,10.57
2023-12-10T20:22:32.867Z,10.40
2023-12-10T20:25:03.220Z,9.17
2023-12-10T20:27:32.655Z,9.07
2023-12-10T20:30:02.233Z,8.27
2023-12-10T20:32:30.403Z,8.47
2023-12-10T20:34:59.697Z,7.23
2023-12-10T20:37:29.454Z,9.17
2023-12-10T20:39:58.975Z,8.70
2023-12-10T20:42:27.764Z,8.20
2023-12-10T20:44:56.444Z,9.27
2023-12-10T20:47:24.577Z,10.70
2023-12-10T20:49:52.840Z,9.77
2023-12-10T20:52:21.994Z,9.83
2023-12-10T20:54:52.142Z,7.57
2023-12-10T20:57:20.277Z,7.70
2023-12-10T20:59:47.454Z,8.37
2023-12-10T21:02:15.594Z,8.90
2023-12-10T21:04:45.131Z,9.17
2023-12-10T21:07:13.441Z,8.20
2023-12-10T21:09:43.713Z,7.57
2023-12-10T21:12:13.202Z,8.00
2023-12-10T21:14:42.654Z,7.57
2023-12-10T21:17:13.089Z,8.03
2023-12-10T21:19:43.054Z,8.47
2023-12-10T21:22:11.297Z,8.27
2023-12-10T21:24:39.569Z,7.03
2023-12-10T21:27:07.696Z,7.80
2023-12-10T21:29:37.189Z,7.40
2023-12-10T21:32:05.947Z,7.27
2023-12-10T21:34:34.205Z,7.70
2023-12-10T21:37:02.475Z,7.67
2023-12-10T21:39:30.654Z,8.20
2023-12-10T21:41:59.257Z,8.57
2023-12-10T21:44:27.547Z,7.60
2023-12-10T21:46:57.074Z,6.77
2023-12-10T21:49:25.845Z,6.80
2023-12-10T21:51:54.006Z,7.03
2023-12-10T21:54:25.935Z,7.90
2023-12-10T21:56:54.615Z,7.93
2023-12-10T21:59:23.121Z,8.33
2023-12-10T22:01:51.339Z,9.87
2023-12-10T22:04:20.933Z,8.70
2023-12-10T22:06:49.067Z,10.73
2023-12-10T22:09:17.167Z,9.97
2023-12-10T22:11:45.245Z,10.53
2023-12-10T22:14:13.304Z,10.63
2023-12-10T22:16:41.449Z,10.07
2023-12-10T22:19:10.001Z,9.40
2023-12-10T22:21:40.117Z,9.87
2023-12-10T22:24:08.344Z,9.77
2023-12-10T22:26:36.399Z,10.83
2023-12-10T22:29:04.483Z,10.80
2023-12-10T22:31:32.588Z,11.73
2023-12-10T22:34:02.599Z,9.90
2023-12-10T22:36:32.747Z,11.30
2023-12-10T22:39:03.991Z,12.53
2023-12-10T22:41:32.126Z,11.93
2023-12-10T22:44:00.215Z,11.70
2023-12-10T22:46:28.305Z,13.23
2023-12-10T22:48:56.917Z,14.80
2023-12-10T22:51:25.084Z,13.47
2023-12-10T22:53:54.007Z,16.90
2023-12-10T22:56:23.707Z,15.27
2023-12-10T22:58:51.774Z,15.60
2023-12-10T23:01:20.916Z,15.60
2023-12-10T23:03:50.257Z,16.00
2023-12-10T23:06:18.394Z,17.43
2023-12-10T23:08:46.517Z,17.53
2023-12-10T23:11:14.613Z,16.33
2023-12-10T23:13:44.073Z,17.37
2023-12-10T23:16:12.987Z,18.43
2023-12-10T23:18:41.715Z,17.33
2023-12-10T23:21:10.026Z,19.23
2023-12-10T23:23:38.129Z,18.83
2023-12-10T23:26:07.411Z,18.20
2023-12-10T23:28:36.076Z,20.50
2023-12-10T23:31:05.790Z,22.20
2023-12-10T23:33:34.093Z,17.87
2023-12-10T23:36:02.285Z,19.37
2023-12-10T23:38:30.333Z,20.97
2023-12-10T23:40:58.414Z,23.57
2023-12-10T23:43:26.528Z,20.63
2023-12-10T23:45:54.874Z,23.23
2023-12-10T23:48:24.319Z,24.13
2023-12-10T23:50:52.468Z,22.80
2023-12-10T23:53:20.545Z,24.37
2023-12-10T23:55:48.625Z,22.87
2023-12-10T23:58:18.716Z,25.20
